Time;durP1;ratioP1;P1;durP2;ratioP2;P2;SDS_P1;SDS_P2;PMS_P1;PMS_P2;Temp;Humidity;BMP_temperature;BMP_pressure;BME280_temperature;BME280_humidity;BME280_pressure;Samples;Min_cycle;Max_cycle;Signal;HPM_P1;HPM_P2
2021/06/27 00:01:24;;;;;;;6.40;4.93;;;19.80;97.50;;;;;;5009649;28;21671;-77
2021/06/27 00:03:52;;;;;;;6.95;5.40;;;19.80;97.50;;;;;;5016682;28;20030;-78
2021/06/27 00:06:19;;;;;;;9.70;4.93;;;19.80;97.50;;;;;;5007754;28;20029;-76
2021/06/27 00:08:44;;;;;;;6.45;4.75;;;19.80;97.50;;;;;;5017428;28;20061;-78
2021/06/27 00:11:11;;;;;;;7.25;5.55;;;19.80;97.20;;;;;;5010481;28;20026;-75
2021/06/27 00:13:39;;;;;;;6.70;5.00;;;19.80;97.40;;;;;;5014716;28;20034;-77
2021/06/27 00:16:06;;;;;;;7.05;4.35;;;19.70;97.40;;;;;;5031913;28;20113;-76
2021/06/27 00:18:32;;;;;;;8.32;5.43;;;21.50;98.00;;;;;;5011706;28;20068;-78
2021/06/27 00:21:01;;;;;;;7.13;5.22;;;19.70;97.70;;;;;;5004087;28;20026;-76
2021/06/27 00:23:31;;;;;;;6.40;4.32;;;19.70;97.70;;;;;;5004932;28;20056;-76
2021/06/27 00:25:59;;;;;;;7.28;5.03;;;19.70;97.80;;;;;;5010090;28;20036;-77
2021/06/27 00:28:25;;;;;;;6.30;4.40;;;19.70;97.80;;;;;;5009633;28;20097;-77
2021/06/27 00:30:52;;;;;;;11.20;5.10;;;;;;;;;;5000868;28;20026;-78
2021/06/27 00:33:18;;;;;;;8.90;4.57;;;19.60;97.70;;;;;;5015941;28;20070;-78
2021/06/27 00:35:45;;;;;;;5.95;4.85;;;19.60;98.00;;;;;;5008680;28;20538;-77
2021/06/27 00:38:11;;;;;;;7.30;4.97;;;20.70;98.30;;;;;;5007439;28;20089;-76
2021/06/27 00:40:37;;;;;;;7.47;5.20;;;19.60;97.90;;;;;;5004337;28;20545;-76
2021/06/27 00:43:04;;;;;;;8.27;5.82;;;19.50;98.00;;;;;;5005591;28;20034;-77
2021/06/27 00:45:30;;;;;;;7.70;5.55;;;19.50;98.20;;;;;;5011738;28;20025;-76
2021/06/27 00:48:00;;;;;;;7.43;4.50;;;19.50;98.30;;;;;;5006653;28;20034;-76
2021/06/27 00:50:38;;;;;;;7.38;5.50;;;19.40;98.50;;;;;;5008574;28;20151;-77
2021/06/27 00:53:05;;;;;;;5.97;4.82;;;;;;;;;;5026160;28;20060;-77
2021/06/27 00:55:31;;;;;;;7.13;5.05;;;19.40;98.50;;;;;;5010443;28;20079;-78
2021/06/27 00:57:57;;;;;;;8.27;4.70;;;19.40;98.70;;;;;;5008357;28;20026;-77
2021/06/27 01:00:29;;;;;;;5.78;4.32;;;19.40;98.90;;;;;;4999227;28;20124;-75
2021/06/27 01:02:55;;;;;;;8.40;4.78;;;19.40;98.50;;;;;;5011200;28;20030;-76
2021/06/27 01:05:25;;;;;;;9.25;5.68;;;19.30;98.80;;;;;;5022061;28;20040;-75
2021/06/27 01:07:51;;;;;;;6.63;5.35;;;19.30;98.90;;;;;;5007352;28;20034;-76
2021/06/27 01:10:17;;;;;;;10.52;5.90;;;19.30;99.00;;;;;;5011080;28;20029;-79
2021/06/27 01:12:44;;;;;;;9.70;5.78;;;19.30;98.80;;;;;;5008596;28;20041;-77
2021/06/27 01:15:11;;;;;;;5.95;4.32;;;19.30;99.00;;;;;;5025806;28;20538;-77
2021/06/27 01:17:39;;;;;;;6.68;4.75;;;19.30;99.10;;;;;;5003629;28;20032;-78
2021/06/27 01:20:17;;;;;;;6.65;4.75;;;19.30;98.90;;;;;;5011186;28;20026;-77
2021/06/27 01:22:43;;;;;;;8.13;5.38;;;19.30;99.10;;;;;;5022421;28;20034;-78
2021/06/27 01:25:11;;;;;;;6.78;4.80;;;19.20;99.10;;;;;;5009263;28;20053;-77
2021/06/27 01:27:37;;;;;;;8.45;5.30;;;19.30;99.30;;;;;;5008886;28;20160;-77
2021/06/27 01:30:06;;;;;;;6.20;4.80;;;19.20;99.20;;;;;;5007283;28;20026;-78
2021/06/27 01:32:31;;;;;;;8.65;4.88;;;19.20;99.50;;;;;;5000439;28;20030;-77
2021/06/27 01:34:57;;;;;;;5.57;4.55;;;19.20;99.30;;;;;;5000512;28;20037;-77
2021/06/27 01:37:23;;;;;;;5.95;4.70;;;19.20;99.40;;;;;;5019533;28;20087;-78
2021/06/27 01:39:48;;;;;;;6.57;4.68;;;19.60;99.60;;;;;;5000378;28;20034;-77
2021/06/27 01:42:14;;;;;;;6.28;4.75;;;;;;;;;;5003593;28;20030;-78
2021/06/27 01:44:40;;;;;;;7.40;4.50;;;19.10;99.40;;;;;;5010684;28;20030;-76
2021/06/27 01:47:06;;;;;;;6.60;5.15;;;20.00;99.90;;;;;;5022969;28;20022;-77
2021/06/27 01:49:31;;;;;;;6.55;4.93;;;19.00;99.70;;;;;;5009306;28;20097;-77
2021/06/27 01:51:57;;;;;;;6.68;4.70;;;19.00;99.90;;;;;;5013262;28;20077;-77
2021/06/27 01:54:23;;;;;;;6.88;5.15;;;19.00;99.90;;;;;;5010955;28;20117;-76
2021/06/27 01:56:49;;;;;;;15.88;9.80;;;19.00;99.90;;;;;;5032127;28;20030;-77
2021/06/27 01:59:14;;;;;;;10.32;7.18;;;19.00;99.90;;;;;;5028269;28;20030;-78
2021/06/27 02:01:41;;;;;;;7.20;5.50;;;19.00;99.90;;;;;;4997143;28;20033;-78
2021/06/27 02:04:08;;;;;;;9.35;5.28;;;19.10;99.90;;;;;;5005154;28;20034;-76
2021/06/27 02:06:37;;;;;;;9.95;6.43;;;19.10;99.90;;;;;;5035941;28;20034;-76
2021/06/27 02:09:06;;;;;;;12.00;6.20;;;19.10;99.90;;;;;;5014669;28;20049;-76
2021/06/27 02:11:33;;;;;;;8.02;5.03;;;19.10;99.90;;;;;;5003803;28;20109;-76
2021/06/27 02:13:58;;;;;;;6.95;5.45;;;19.10;99.90;;;;;;5013281;28;20032;-77
2021/06/27 02:16:27;;;;;;;8.60;5.80;;;19.10;99.90;;;;;;5015765;28;20097;-76
2021/06/27 02:18:54;;;;;;;8.18;5.35;;;19.10;99.90;;;;;;5017452;28;20625;-76
2021/06/27 02:21:23;;;;;;;7.00;4.88;;;19.10;99.90;;;;;;5008436;28;20034;-77
2021/06/27 02:23:49;;;;;;;6.45;4.78;;;20.70;99.90;;;;;;5015980;28;20128;-77
2021/06/27 02:26:15;;;;;;;6.30;4.90;;;19.10;99.90;;;;;;5012069;28;20576;-75
2021/06/27 02:28:42;;;;;;;6.43;4.63;;;19.10;99.90;;;;;;5016978;28;20507;-77
2021/06/27 02:31:08;;;;;;;9.55;5.82;;;19.10;99.90;;;;;;5019927;28;20044;-78
2021/06/27 02:33:34;;;;;;;5.45;4.38;;;19.10;99.90;;;;;;5016306;28;20034;-77
2021/06/27 02:36:00;;;;;;;5.53;4.78;;;19.00;99.80;;;;;;5016672;28;20175;-77
2021/06/27 02:38:26;;;;;;;6.40;5.07;;;19.00;99.70;;;;;;5029205;28;20032;-76
2021/06/27 02:40:52;;;;;;;9.57;5.00;;;19.10;99.80;;;;;;5013610;28;20033;-80
2021/06/27 02:43:18;;;;;;;7.30;4.53;;;19.10;99.90;;;;;;5018454;28;20060;-78
2021/06/27 02:45:45;;;;;;;6.78;4.75;;;19.00;99.90;;;;;;5020258;28;20037;-77
2021/06/27 02:48:11;;;;;;;6.93;4.97;;;19.10;99.90;;;;;;5011354;28;20086;-77
2021/06/27 02:50:38;;;;;;;7.95;5.70;;;19.00;99.90;;;;;;5019539;28;20057;-78
2021/06/27 02:53:04;;;;;;;7.18;5.47;;;18.90;99.90;;;;;;5008284;28;20704;-78
2021/06/27 02:55:30;;;;;;;7.30;5.32;;;18.90;99.90;;;;;;5031729;28;20036;-76
2021/06/27 02:57:55;;;;;;;7.47;4.88;;;18.90;99.90;;;;;;5027247;28;20093;-76
2021/06/27 03:00:22;;;;;;;7.13;5.30;;;18.90;99.90;;;;;;5008242;28;20192;-76
2021/06/27 03:02:48;;;;;;;6.20;4.60;;;18.90;99.90;;;;;;5016820;28;20092;-78
2021/06/27 03:05:15;;;;;;;9.85;5.30;;;18.80;99.90;;;;;;5015472;28;20042;-77
2021/06/27 03:07:42;;;;;;;4.93;4.30;;;18.80;99.90;;;;;;5008108;28;20033;-76
2021/06/27 03:10:12;;;;;;;7.18;5.40;;;18.80;99.90;;;;;;5003448;28;21486;-77
2021/06/27 03:12:39;;;;;;;6.97;4.90;;;18.90;99.90;;;;;;5019187;28;20061;-79
2021/06/27 03:15:06;;;;;;;6.20;4.68;;;18.80;99.90;;;;;;5025221;28;20444;-77
2021/06/27 03:17:32;;;;;;;6.63;5.10;;;18.80;99.90;;;;;;5012436;28;20041;-77
2021/06/27 03:19:57;;;;;;;7.60;4.95;;;18.80;99.90;;;;;;5010757;28;20030;-77
2021/06/27 03:22:23;;;;;;;8.27;5.32;;;18.80;99.90;;;;;;5011141;28;20090;-76
2021/06/27 03:24:48;;;;;;;7.95;5.00;;;18.80;99.90;;;;;;5010174;28;20030;-77
2021/06/27 03:27:14;;;;;;;7.18;4.90;;;18.80;99.90;;;;;;5004627;28;20026;-77
2021/06/27 03:29:40;;;;;;;11.38;6.18;;;18.80;99.90;;;;;;5022850;28;20086;-78
2021/06/27 03:32:06;;;;;;;6.90;5.22;;;19.50;99.90;;;;;;5021253;28;20021;-76
2021/06/27 03:34:31;;;;;;;10.02;5.40;;;18.70;99.90;;;;;;5019320;28;20037;-76
2021/06/27 03:36:57;;;;;;;6.72;4.93;;;18.80;99.90;;;;;;5015201;28;20508;-77
2021/06/27 03:39:23;;;;;;;6.28;4.40;;;18.70;99.90;;;;;;5012955;28;20034;-77
2021/06/27 03:41:55;;;;;;;7.22;5.18;;;18.80;99.90;;;;;;5008057;28;20060;-79
2021/06/27 03:44:25;;;;;;;6.10;4.75;;;18.80;99.90;;;;;;5007509;28;20033;-78
2021/06/27 03:46:52;;;;;;;7.10;4.80;;;18.70;99.90;;;;;;5011574;28;20026;-77
2021/06/27 03:49:18;;;;;;;7.50;5.30;;;18.70;99.90;;;;;;5008190;28;20037;-77
2021/06/27 03:51:44;;;;;;;7.43;5.00;;;18.70;99.90;;;;;;5008770;28;20053;-78
2021/06/27 03:54:10;;;;;;;7.03;4.93;;;18.80;99.90;;;;;;5008756;28;20041;-79
2021/06/27 03:56:36;;;;;;;7.35;5.03;;;18.70;99.90;;;;;;5007854;28;20503;-78
2021/06/27 03:59:02;;;;;;;6.03;4.78;;;18.70;99.90;;;;;;5010389;28;20076;-77
2021/06/27 04:01:29;;;;;;;6.22;4.70;;;18.70;99.90;;;;;;4997947;28;20446;-76
2021/06/27 04:03:54;;;;;;;7.90;5.35;;;18.70;99.90;;;;;;5023786;28;20080;-78
2021/06/27 04:06:20;;;;;;;8.35;5.80;;;18.80;99.90;;;;;;5002606;28;20031;-78
2021/06/27 04:08:46;;;;;;;8.25;5.28;;;18.50;99.90;;;;;;5005867;28;20085;-76
2021/06/27 04:11:11;;;;;;;6.30;5.00;;;18.70;99.90;;;;;;5026392;28;20026;-77
2021/06/27 04:13:37;;;;;;;6.45;4.88;;;18.80;99.90;;;;;;5025094;28;20029;-76
2021/06/27 04:16:04;;;;;;;7.45;5.35;;;19.00;99.90;;;;;;5017226;28;20032;-79
2021/06/27 04:18:34;;;;;;;7.35;5.03;;;18.90;99.90;;;;;;5010683;28;20507;-78
2021/06/27 04:20:59;;;;;;;7.95;5.30;;;18.80;99.90;;;;;;5009360;28;20484;-76
2021/06/27 04:23:27;;;;;;;7.50;4.72;;;18.90;99.90;;;;;;5018045;28;20044;-79
2021/06/27 04:25:53;;;;;;;6.25;4.93;;;19.00;99.90;;;;;;5006614;28;20030;-76
2021/06/27 04:28:19;;;;;;;7.65;5.20;;;19.00;99.90;;;;;;5002843;28;20034;-78
2021/06/27 04:30:44;;;;;;;6.20;4.75;;;19.10;99.90;;;;;;5003416;28;20388;-79
2021/06/27 04:33:11;;;;;;;7.03;5.10;;;19.80;99.90;;;;;;5026462;28;20056;-79
2021/06/27 04:35:39;;;;;;;7.75;4.57;;;19.10;99.90;;;;;;5007739;28;20041;-79
2021/06/27 04:38:10;;;;;;;7.32;5.00;;;19.10;99.90;;;;;;5003485;28;20025;-78
2021/06/27 04:40:37;;;;;;;6.28;4.95;;;19.20;99.90;;;;;;5002196;28;20029;-77
2021/06/27 04:43:04;;;;;;;6.13;5.15;;;19.20;99.90;;;;;;5012524;28;20157;-75
2021/06/27 04:45:30;;;;;;;6.78;5.03;;;19.10;99.90;;;;;;5010760;28;20134;-76
2021/06/27 04:47:56;;;;;;;7.05;5.25;;;19.20;99.90;;;;;;5014280;28;20048;-76
2021/06/27 04:50:21;;;;;;;6.35;4.90;;;19.20;99.90;;;;;;5025608;28;20500;-75
2021/06/27 04:52:52;;;;;;;6.20;4.65;;;19.20;99.90;;;;;;5026235;28;20542;-78
2021/06/27 04:55:21;;;;;;;8.48;5.32;;;19.30;99.90;;;;;;5008898;28;20022;-76
2021/06/27 04:57:47;;;;;;;6.85;5.20;;;19.10;99.90;;;;;;4997214;28;20038;-77
2021/06/27 05:00:14;;;;;;;6.68;5.00;;;19.30;99.90;;;;;;5004339;28;20056;-77
2021/06/27 05:02:40;;;;;;;7.88;5.00;;;20.10;99.90;;;;;;5004477;28;20030;-76
2021/06/27 05:05:06;;;;;;;7.38;4.35;;;19.40;99.90;;;;;;5007090;28;20395;-77
2021/06/27 05:07:32;;;;;;;6.43;4.90;;;19.40;99.90;;;;;;5006327;28;20038;-77
2021/06/27 05:09:58;;;;;;;8.23;5.30;;;19.50;99.90;;;;;;5022818;28;20157;-77
2021/06/27 05:12:27;;;;;;;6.45;5.05;;;19.50;99.90;;;;;;5012775;28;20030;-76
2021/06/27 05:14:54;;;;;;;7.20;4.85;;;19.50;99.80;;;;;;5009635;28;20388;-77
2021/06/27 05:17:20;;;;;;;6.72;5.00;;;19.90;99.80;;;;;;5020521;28;20037;-78
2021/06/27 05:19:45;;;;;;;6.32;5.00;;;19.60;99.70;;;;;;5009030;28;20034;-77
2021/06/27 05:22:11;;;;;;;6.28;4.85;;;19.60;99.70;;;;;;5008053;28;20026;-77
2021/06/27 05:24:36;;;;;;;6.47;4.72;;;19.60;99.80;;;;;;5013634;28;20029;-77
2021/06/27 05:27:03;;;;;;;7.90;5.03;;;19.60;99.80;;;;;;5010981;28;20119;-77
2021/06/27 05:29:28;;;;;;;7.82;4.95;;;19.80;99.60;;;;;;5002057;28;20116;-76
2021/06/27 05:31:54;;;;;;;7.18;4.72;;;;;;;;;;5002376;28;20124;-77
2021/06/27 05:34:20;;;;;;;5.95;4.93;;;20.60;98.00;;;;;;5027303;28;20038;-76
2021/06/27 05:36:45;;;;;;;6.53;4.60;;;21.20;97.30;;;;;;5009247;28;20036;-78
2021/06/27 05:39:12;;;;;;;7.88;4.47;;;22.30;95.80;;;;;;5007691;28;20033;-77
2021/06/27 05:41:39;;;;;;;5.82;4.57;;;23.00;94.10;;;;;;5008099;28;20576;-79
2021/06/27 05:44:06;;;;;;;5.53;4.45;;;23.90;92.70;;;;;;5011284;28;20132;-75
2021/06/27 05:46:33;;;;;;;5.63;4.43;;;24.30;91.20;;;;;;5006474;28;20404;-77
2021/06/27 05:48:59;;;;;;;6.88;4.32;;;25.10;90.10;;;;;;5026940;28;20037;-78
2021/06/27 05:51:25;;;;;;;5.60;4.20;;;25.50;87.40;;;;;;5005389;28;20037;-78
2021/06/27 05:53:51;;;;;;;5.03;4.28;;;25.30;88.80;;;;;;5009562;28;20034;-77
2021/06/27 05:56:19;;;;;;;6.93;4.22;;;25.50;85.30;;;;;;5029537;28;20029;-77
2021/06/27 05:58:46;;;;;;;6.15;3.92;;;25.10;86.80;;;;;;5008853;28;20026;-76
2021/06/27 06:01:15;;;;;;;4.25;3.80;;;25.00;87.10;;;;;;5004797;28;20022;-78
2021/06/27 06:03:41;;;;;;;6.55;4.22;;;24.90;86.40;;;;;;5003249;28;20034;-78
2021/06/27 06:06:12;;;;;;;5.50;4.32;;;24.50;88.20;;;;;;5008567;28;20026;-78
2021/06/27 06:08:42;;;;;;;5.20;4.18;;;24.50;87.30;;;;;;5020627;28;20030;-78
2021/06/27 06:11:13;;;;;;;5.30;4.25;;;24.40;88.20;;;;;;5002195;28;20034;-78
2021/06/27 06:13:39;;;;;;;6.38;4.03;;;24.40;88.60;;;;;;5022982;28;20026;-78
2021/06/27 06:16:06;;;;;;;4.80;4.20;;;24.70;88.30;;;;;;5009408;28;20465;-78
2021/06/27 06:18:33;;;;;;;5.20;4.25;;;25.00;87.20;;;;;;5024545;28;20037;-78
2021/06/27 06:20:59;;;;;;;5.20;4.60;;;24.90;87.50;;;;;;5008622;28;20530;-78
2021/06/27 06:23:26;;;;;;;6.05;4.22;;;24.90;86.60;;;;;;5005569;28;20120;-77
2021/06/27 06:25:53;;;;;;;5.53;4.28;;;25.10;85.60;;;;;;5006947;28;20027;-78
2021/06/27 06:28:19;;;;;;;5.90;4.45;;;24.70;87.30;;;;;;5025007;28;20038;-79
2021/06/27 06:30:45;;;;;;;4.70;4.15;;;24.10;88.50;;;;;;5005327;28;20084;-78
2021/06/27 06:33:11;;;;;;;6.35;4.40;;;24.10;89.10;;;;;;5025380;28;20040;-79
2021/06/27 06:35:38;;;;;;;4.25;3.85;;;23.90;90.10;;;;;;5021035;28;20030;-81
2021/06/27 06:38:04;;;;;;;6.72;4.97;;;23.70;90.50;;;;;;5004188;28;20038;-79
2021/06/27 06:40:30;;;;;;;5.68;4.60;;;23.70;90.70;;;;;;5001589;28;20045;-78
2021/06/27 06:42:55;;;;;;;6.53;4.32;;;24.20;89.80;;;;;;5006563;28;20116;-78
2021/06/27 06:45:21;;;;;;;7.53;4.57;;;24.40;88.90;;;;;;5008850;28;20741;-78
2021/06/27 06:47:47;;;;;;;4.97;4.20;;;24.00;90.00;;;;;;5010239;28;20040;-78
2021/06/27 06:50:12;;;;;;;6.30;4.72;;;23.80;90.70;;;;;;5012763;28;20072;-79
2021/06/27 06:52:38;;;;;;;5.30;4.40;;;24.70;90.60;;;;;;5013355;28;20575;-79
2021/06/27 06:55:04;;;;;;;4.90;3.92;;;24.20;90.00;;;;;;5024839;28;20038;-78
2021/06/27 06:57:29;;;;;;;5.25;4.32;;;24.40;89.70;;;;;;5025346;28;20058;-78
2021/06/27 06:59:55;;;;;;;5.25;4.30;;;24.30;89.50;;;;;;5020769;28;20093;-80
2021/06/27 07:02:21;;;;;;;6.15;4.63;;;24.40;89.60;;;;;;5009108;28;20030;-77
2021/06/27 07:04:46;;;;;;;5.32;4.35;;;24.50;89.00;;;;;;5010439;28;20034;-79
2021/06/27 07:07:12;;;;;;;6.30;4.40;;;24.00;90.20;;;;;;5005191;28;20022;-79
2021/06/27 07:09:37;;;;;;;6.10;4.22;;;23.90;90.50;;;;;;4998239;28;20049;-77
2021/06/27 07:12:03;;;;;;;5.22;4.32;;;24.00;90.60;;;;;;5003897;28;20022;-78
2021/06/27 07:14:29;;;;;;;6.63;4.70;;;23.90;90.70;;;;;;4999712;28;20034;-79
2021/06/27 07:16:54;;;;;;;5.13;4.38;;;24.00;90.20;;;;;;5018928;28;20446;-77
2021/06/27 07:19:20;;;;;;;6.40;4.57;;;23.80;90.80;;;;;;5028438;28;20078;-77
2021/06/27 07:21:46;;;;;;;10.55;5.07;;;23.70;91.40;;;;;;5009198;28;20059;-76
2021/06/27 07:24:11;;;;;;;5.25;4.40;;;23.90;91.20;;;;;;5012810;28;20029;-77
2021/06/27 07:26:37;;;;;;;4.70;3.97;;;24.10;90.60;;;;;;5024192;28;20087;-77
2021/06/27 07:29:04;;;;;;;7.00;4.75;;;24.30;90.60;;;;;;5006957;28;20060;-77
2021/06/27 07:31:30;;;;;;;4.35;3.80;;;24.30;90.50;;;;;;5019752;28;20034;-78
2021/06/27 07:33:55;;;;;;;5.80;4.18;;;24.50;90.20;;;;;;5000975;28;20121;-78
2021/06/27 07:36:21;;;;;;;5.10;4.20;;;24.60;90.20;;;;;;5021227;28;20037;-78
2021/06/27 07:38:47;;;;;;;5.47;4.25;;;27.40;90.70;;;;;;5008163;28;20574;-78
2021/06/27 07:41:14;;;;;;;5.93;4.70;;;25.10;89.50;;;;;;5009075;28;20427;-78
2021/06/27 07:43:40;;;;;;;6.28;4.25;;;25.20;88.60;;;;;;5021672;28;20125;-78
2021/06/27 07:46:06;;;;;;;5.18;4.13;;;25.50;87.70;;;;;;5043800;28;20034;-78
2021/06/27 07:48:32;;;;;;;5.80;4.32;;;25.60;87.00;;;;;;5010330;28;20376;-77
2021/06/27 07:50:57;;;;;;;4.80;3.85;;;25.50;87.00;;;;;;5006222;28;20033;-77
2021/06/27 07:53:23;;;;;;;5.20;4.28;;;25.30;88.40;;;;;;5009133;28;20468;-78
2021/06/27 07:55:49;;;;;;;5.35;4.18;;;25.40;87.30;;;;;;5008660;28;20057;-76
2021/06/27 07:58:16;;;;;;;5.97;4.25;;;25.30;87.70;;;;;;5023415;28;20103;-78
2021/06/27 08:00:41;;;;;;;5.00;4.07;;;25.40;88.00;;;;;;5006505;28;20397;-78
2021/06/27 08:03:07;;;;;;;6.18;4.47;;;25.40;88.60;;;;;;5009197;28;20027;-78
2021/06/27 08:05:32;;;;;;;6.43;4.50;;;25.50;88.10;;;;;;5006738;28;20034;-76
2021/06/27 08:07:58;;;;;;;6.53;4.15;;;25.50;88.00;;;;;;5017136;28;20065;-78
2021/06/27 08:10:24;;;;;;;4.85;4.10;;;25.30;87.40;;;;;;5007456;28;20029;-79
2021/06/27 08:12:49;;;;;;;5.07;4.40;;;25.50;87.80;;;;;;5011832;28;20147;-77
2021/06/27 08:15:18;;;;;;;5.45;4.15;;;25.50;87.00;;;;;;5004456;28;20037;-79
2021/06/27 08:17:49;;;;;;;5.73;3.87;;;25.50;87.50;;;;;;5003269;28;20096;-76
2021/06/27 08:20:16;;;;;;;5.55;4.60;;;24.30;86.80;;;;;;5012355;28;20284;-77
2021/06/27 08:22:42;;;;;;;6.20;4.40;;;25.80;87.40;;;;;;5022403;28;20026;-78
2021/06/27 08:25:08;;;;;;;7.35;5.65;;;25.80;87.40;;;;;;5006835;28;20029;-77
2021/06/27 08:27:34;;;;;;;5.38;4.05;;;25.80;86.60;;;;;;5020697;28;20044;-77
2021/06/27 08:30:01;;;;;;;4.95;3.95;;;25.60;88.20;;;;;;5005542;28;20066;-77
2021/06/27 08:32:29;;;;;;;5.00;3.83;;;25.70;87.60;;;;;;5016086;28;20026;-77
2021/06/27 08:34:54;;;;;;;6.70;4.20;;;25.70;87.30;;;;;;5001613;28;20080;-77
2021/06/27 08:37:20;;;;;;;5.75;4.55;;;25.80;87.10;;;;;;5006254;28;20041;-77
2021/06/27 08:39:46;;;;;;;5.13;4.03;;;25.90;86.00;;;;;;5018760;28;20030;-79
2021/06/27 08:42:12;;;;;;;5.32;4.00;;;26.10;85.80;;;;;;5010124;28;20026;-78
2021/06/27 08:44:40;;;;;;;4.85;4.28;;;26.20;86.20;;;;;;5022266;28;20037;-78
2021/06/27 08:47:08;;;;;;;6.40;4.50;;;26.20;86.60;;;;;;5019609;28;20026;-79
2021/06/27 08:49:35;;;;;;;5.47;4.10;;;26.30;85.90;;;;;;5004819;28;20052;-79
2021/06/27 08:52:00;;;;;;;5.13;4.22;;;26.40;85.20;;;;;;4996590;28;20046;-77
2021/06/27 08:54:28;;;;;;;5.70;4.05;;;26.70;85.60;;;;;;4998935;28;20874;-78
2021/06/27 08:56:55;;;;;;;4.82;4.00;;;26.80;83.60;;;;;;4997815;28;23294;-77
2021/06/27 08:59:20;;;;;;;5.15;4.18;;;26.80;84.00;;;;;;5010246;28;20454;-77
2021/06/27 09:01:46;;;;;;;5.00;4.43;;;26.80;84.50;;;;;;5005859;28;20018;-77
2021/06/27 09:04:14;;;;;;;4.70;3.70;;;26.70;84.70;;;;;;5008824;28;20084;-79
2021/06/27 09:06:40;;;;;;;5.22;4.30;;;26.40;84.50;;;;;;5007090;28;20026;-78
2021/06/27 09:09:20;;;;;;;5.03;3.97;;;26.30;85.00;;;;;;5007739;28;20052;-78
2021/06/27 09:12:10;;;;;;;4.22;3.60;;;26.40;86.20;;;;;;5006970;28;20503;-78
2021/06/27 09:14:43;;;;;;;5.90;3.97;;;26.60;85.40;;;;;;5021719;28;20026;-77
2021/06/27 09:17:19;;;;;;;7.03;4.18;;;26.60;85.00;;;;;;5022528;28;20022;-77
2021/06/27 09:19:50;;;;;;;4.85;3.80;;;26.70;84.80;;;;;;5015347;28;20029;-78
2021/06/27 09:22:16;;;;;;;4.85;3.97;;;27.00;84.40;;;;;;5002750;28;20026;-78
2021/06/27 09:24:43;;;;;;;6.10;4.60;;;27.00;84.70;;;;;;5011671;28;20399;-78
2021/06/27 09:27:16;;;;;;;5.13;4.18;;;27.20;84.40;;;;;;5007897;28;20430;-77
2021/06/27 09:29:42;;;;;;;6.05;4.20;;;27.00;83.50;;;;;;5021624;28;20037;-78
2021/06/27 09:32:23;;;;;;;5.15;3.83;;;27.00;84.00;;;;;;5025640;28;20388;-78
2021/06/27 09:34:49;;;;;;;4.57;3.70;;;27.10;83.50;;;;;;5028030;28;20029;-78
2021/06/27 09:37:25;;;;;;;4.82;3.97;;;27.20;83.60;;;;;;5006261;28;20081;-78
2021/06/27 09:40:00;;;;;;;4.30;3.40;;;27.40;82.70;;;;;;5007948;28;20460;-78
2021/06/27 09:42:26;;;;;;;4.63;3.92;;;27.20;83.30;;;;;;5011997;28;20022;-78
2021/06/27 09:45:07;;;;;;;5.57;3.60;;;26.90;83.40;;;;;;5028987;28;20081;-77
2021/06/27 09:47:33;;;;;;;4.68;3.70;;;26.90;84.40;;;;;;5012531;28;20041;-77
2021/06/27 09:49:59;;;;;;;4.65;3.70;;;27.60;83.80;;;;;;5015514;28;20053;-79
2021/06/27 09:52:39;;;;;;;4.63;3.58;;;27.00;83.00;;;;;;5014596;28;20515;-78
2021/06/27 09:55:09;;;;;;;5.63;3.50;;;26.80;82.80;;;;;;5022014;28;20033;-77
2021/06/27 09:57:36;;;;;;;4.47;3.63;;;26.80;83.20;;;;;;5015103;28;20045;-77
2021/06/27 10:00:24;;;;;;;4.25;3.40;;;26.80;83.10;;;;;;5006460;28;20052;-78
2021/06/27 10:03:04;;;;;;;15.20;3.85;;;27.10;81.00;;;;;;5029398;28;20124;-77
2021/06/27 10:05:30;;;;;;;4.82;3.15;;;27.00;80.90;;;;;;5004270;28;20030;-78
2021/06/27 10:07:56;;;;;;;5.28;3.03;;;27.00;80.50;;;;;;5002751;28;20586;-77
2021/06/27 10:10:22;;;;;;;3.42;2.90;;;27.00;79.70;;;;;;5007072;28;20164;-77
2021/06/27 10:12:48;;;;;;;7.10;4.00;;;27.00;79.80;;;;;;5017203;28;20018;-78
2021/06/27 10:15:15;;;;;;;4.15;2.85;;;27.10;79.30;;;;;;5026954;28;20044;-77
2021/06/27 10:17:43;;;;;;;3.80;3.22;;;27.00;79.30;;;;;;5030617;28;20025;-78
2021/06/27 10:20:13;;;;;;;3.78;3.25;;;26.90;79.50;;;;;;5010814;28;20034;-79
2021/06/27 10:22:39;;;;;;;4.15;3.30;;;26.80;80.00;;;;;;5011197;28;20033;-78
2021/06/27 10:25:09;;;;;;;4.40;3.22;;;26.90;80.00;;;;;;5008154;28;20032;-77
2021/06/27 10:27:35;;;;;;;4.80;3.33;;;26.80;79.20;;;;;;5008619;28;20030;-79
2021/06/27 10:30:04;;;;;;;3.80;3.22;;;26.80;79.20;;;;;;5020929;28;20025;-77
2021/06/27 10:32:29;;;;;;;3.15;2.58;;;26.70;79.90;;;;;;5017466;28;20022;-77
2021/06/27 10:34:56;;;;;;;4.50;3.20;;;26.70;79.70;;;;;;5008606;28;20437;-77
2021/06/27 10:37:45;;;;;;;3.80;3.30;;;26.50;80.10;;;;;;5039732;28;20037;-79
2021/06/27 10:40:14;;;;;;;3.90;3.00;;;26.50;80.10;;;;;;5010228;28;20033;-79
2021/06/27 10:42:49;;;;;;;3.78;3.10;;;26.40;80.50;;;;;;5010393;28;20041;-78
2021/06/27 10:45:30;;;;;;;3.60;3.08;;;26.60;80.40;;;;;;5015251;28;20038;-78
2021/06/27 10:47:56;;;;;;;5.60;3.30;;;26.80;80.40;;;;;;5006815;28;20029;-77
2021/06/27 10:50:42;;;;;;;5.32;3.35;;;26.60;80.30;;;;;;5023687;28;20116;-78
2021/06/27 10:53:08;;;;;;;4.55;3.25;;;26.60;80.90;;;;;;5022468;28;20026;-78
2021/06/27 10:55:44;;;;;;;3.72;3.20;;;26.60;81.30;;;;;;5019371;28;20419;-78
2021/06/27 10:58:19;;;;;;;4.07;3.15;;;26.70;81.10;;;;;;5010521;28;20034;-78
2021/06/27 11:00:50;;;;;;;3.70;2.80;;;26.70;80.10;;;;;;5008444;28;20082;-78
2021/06/27 11:03:37;;;;;;;4.80;3.15;;;26.70;80.60;;;;;;5025983;28;20495;-78
2021/06/27 11:06:06;;;;;;;4.07;3.13;;;26.70;80.50;;;;;;5010433;28;20029;-78
2021/06/27 11:08:39;;;;;;;3.95;3.30;;;26.70;80.20;;;;;;5014575;28;20188;-78
2021/06/27 11:11:05;;;;;;;4.88;3.22;;;26.70;80.10;;;;;;5010281;28;20029;-76
2021/06/27 11:13:31;;;;;;;4.05;3.20;;;26.70;79.90;;;;;;5008804;28;20014;-78
2021/06/27 11:15:57;;;;;;;3.83;3.03;;;;;;;;;;5018460;28;20033;-77
2021/06/27 11:18:31;;;;;;;4.28;3.50;;;26.80;80.40;;;;;;5004751;28;20108;-77
2021/06/27 11:20:57;;;;;;;6.22;3.25;;;;;;;;;;5004483;28;20383;-78
2021/06/27 11:23:45;;;;;;;5.30;3.40;;;26.80;79.50;;;;;;5018711;28;20022;-79
2021/06/27 11:26:30;;;;;;;3.53;3.13;;;26.80;80.40;;;;;;5018840;28;20195;-77
2021/06/27 11:28:56;;;;;;;3.90;3.00;;;26.80;80.00;;;;;;5018254;28;20036;-78
2021/06/27 11:31:24;;;;;;;3.55;3.10;;;26.80;80.00;;;;;;5004608;28;20030;-78
2021/06/27 11:34:28;;;;;;;4.18;3.22;;;26.90;79.80;;;;;;5003044;28;20025;-77
2021/06/27 11:36:56;;;;;;;3.72;3.20;;;26.70;79.70;;;;;;5000069;28;20041;-76
2021/06/27 11:39:55;;;;;;;3.20;2.90;;;26.60;80.50;;;;;;5013062;28;20030;-77
2021/06/27 11:42:27;;;;;;;3.97;2.90;;;26.50;80.30;;;;;;5001483;28;20057;-78
2021/06/27 11:45:08;;;;;;;3.88;3.25;;;26.50;81.30;;;;;;5016358;28;20030;-78
2021/06/27 11:47:50;;;;;;;4.10;3.42;;;26.50;81.40;;;;;;5012289;28;20022;-77
2021/06/27 11:50:23;;;;;;;4.07;3.33;;;26.50;81.80;;;;;;5001921;28;20022;-78
2021/06/27 11:52:59;;;;;;;3.90;3.45;;;26.60;81.70;;;;;;5012428;28;20026;-77
2021/06/27 11:55:26;;;;;;;4.53;3.33;;;26.70;81.50;;;;;;5001641;28;20041;-77
2021/06/27 11:57:52;;;;;;;4.68;3.50;;;26.70;82.00;;;;;;4998406;28;20054;-77
2021/06/27 12:00:18;;;;;;;3.75;3.20;;;26.80;82.00;;;;;;5007852;28;20042;-78
2021/06/27 12:02:44;;;;;;;4.30;3.35;;;26.90;81.40;;;;;;5013439;28;20220;-77
2021/06/27 12:05:15;;;;;;;4.15;3.70;;;27.00;81.00;;;;;;5016360;28;20543;-76
2021/06/27 12:07:43;;;;;;;5.25;3.35;;;27.10;80.60;;;;;;5003103;28;20038;-77
2021/06/27 12:10:15;;;;;;;4.05;2.70;;;27.20;79.90;;;;;;5000925;28;20021;-78
2021/06/27 12:12:45;;;;;;;3.78;3.22;;;27.10;79.40;;;;;;5013176;28;20044;-76
2021/06/27 12:15:17;;;;;;;3.90;3.20;;;27.00;79.70;;;;;;5014333;28;20040;-76
2021/06/27 12:17:43;;;;;;;4.57;3.50;;;27.10;79.70;;;;;;5016051;28;20037;-76
2021/06/27 12:20:12;;;;;;;3.85;2.90;;;27.20;80.00;;;;;;5004518;28;20075;-76
2021/06/27 12:22:56;;;;;;;4.63;3.50;;;27.10;78.40;;;;;;5001042;28;20117;-77
2021/06/27 12:25:32;;;;;;;3.72;2.78;;;26.90;78.10;;;;;;5002379;28;20046;-78
2021/06/27 12:28:02;;;;;;;4.72;3.35;;;26.90;78.10;;;;;;5018516;28;20104;-78
2021/06/27 12:30:54;;;;;;;3.50;2.95;;;27.00;79.10;;;;;;5002626;28;20033;-76
2021/06/27 12:33:30;;;;;;;3.80;3.13;;;27.00;78.00;;;;;;5014593;28;20084;-79
2021/06/27 12:36:03;;;;;;;5.45;4.03;;;27.10;78.30;;;;;;4997242;28;20504;-78
2021/06/27 12:38:30;;;;;;;4.18;3.17;;;27.20;78.50;;;;;;5017209;28;20442;-78
2021/06/27 12:41:01;;;;;;;4.22;3.25;;;27.00;80.00;;;;;;5016572;28;20197;-79
2021/06/27 12:43:34;;;;;;;4.32;3.30;;;27.00;80.20;;;;;;5005978;28;20041;-79
2021/06/27 12:46:18;;;;;;;4.93;3.75;;;26.90;80.80;;;;;;5014852;28;20045;-77
2021/06/27 12:48:46;;;;;;;4.72;3.50;;;26.70;82.40;;;;;;5002333;28;20041;-77
2021/06/27 12:51:19;;;;;;;4.95;3.22;;;26.60;83.10;;;;;;5013577;28;20026;-77
2021/06/27 12:53:59;;;;;;;5.85;3.25;;;26.60;83.80;;;;;;5003953;28;20098;-77